sensor_id;sensor_type;location;lat;lon;timestamp;P1;durP1;ratioP1;P2;durP2;ratioP2
59512;SDS011;45330;51.634;5.562;2022-10-24T00:01:20;14.55;;;3.30;;
59512;SDS011;45330;51.634;5.562;2022-10-24T00:03:46;14.23;;;3.40;;
59512;SDS011;45330;51.634;5.562;2022-10-24T00:06:13;13.23;;;3.72;;
59512;SDS011;45330;51.634;5.562;2022-10-24T00:08:39;17.90;;;4.05;;
59512;SDS011;45330;51.634;5.562;2022-10-24T00:11:10;14.90;;;3.70;;
59512;SDS011;45330;51.634;5.562;2022-10-24T00:13:38;13.07;;;3.00;;
59512;SDS011;45330;51.634;5.562;2022-10-24T00:16:05;17.60;;;3.80;;
59512;SDS011;45330;51.634;5.562;2022-10-24T00:18:31;15.85;;;3.67;;
59512;SDS011;45330;51.634;5.562;2022-10-24T00:20:56;17.60;;;3.25;;
59512;SDS011;45330;51.634;5.562;2022-10-24T00:23:22;16.20;;;3.63;;
59512;SDS011;45330;51.634;5.562;2022-10-24T00:25:47;15.30;;;3.65;;
59512;SDS011;45330;51.634;5.562;2022-10-24T00:28:12;13.75;;;3.40;;
59512;SDS011;45330;51.634;5.562;2022-10-24T00:30:38;16.38;;;3.10;;
59512;SDS011;45330;51.634;5.562;2022-10-24T00:33:03;15.52;;;3.65;;
59512;SDS011;45330;51.634;5.562;2022-10-24T00:35:28;12.77;;;3.28;;
59512;SDS011;45330;51.634;5.562;2022-10-24T00:37:54;11.50;;;3.05;;
59512;SDS011;45330;51.634;5.562;2022-10-24T00:40:20;12.20;;;2.90;;
59512;SDS011;45330;51.634;5.562;2022-10-24T00:42:46;11.93;;;2.78;;
59512;SDS011;45330;51.634;5.562;2022-10-24T00:48:09;14.77;;;2.92;;
59512;SDS011;45330;51.634;5.562;2022-10-24T00:50:40;17.33;;;3.05;;
59512;SDS011;45330;51.634;5.562;2022-10-24T00:53:05;11.05;;;2.83;;
59512;SDS011;45330;51.634;5.562;2022-10-24T00:55:31;11.70;;;2.80;;
59512;SDS011;45330;51.634;5.562;2022-10-24T00:57:56;11.68;;;2.80;;
59512;SDS011;45330;51.634;5.562;2022-10-24T01:00:27;12.15;;;3.00;;
59512;SDS011;45330;51.634;5.562;2022-10-24T01:02:54;11.15;;;3.40;;
59512;SDS011;45330;51.634;5.562;2022-10-24T01:05:20;13.05;;;3.10;;
59512;SDS011;45330;51.634;5.562;2022-10-24T01:15:44;11.15;;;2.88;;
59512;SDS011;45330;51.634;5.562;2022-10-24T01:38:33;16.48;;;3.10;;
59512;SDS011;45330;51.634;5.562;2022-10-24T01:41:06;13.38;;;3.50;;
59512;SDS011;45330;51.634;5.562;2022-10-24T01:43:34;14.70;;;3.60;;
59512;SDS011;45330;51.634;5.562;2022-10-24T01:46:07;11.25;;;3.05;;
59512;SDS011;45330;51.634;5.562;2022-10-24T01:48:41;12.65;;;3.00;;
59512;SDS011;45330;51.634;5.562;2022-10-24T01:51:10;15.45;;;3.47;;
59512;SDS011;45330;51.634;5.562;2022-10-24T01:53:38;15.30;;;3.50;;
59512;SDS011;45330;51.634;5.562;2022-10-24T01:56:06;11.40;;;2.70;;
59512;SDS011;45330;51.634;5.562;2022-10-24T01:58:31;9.70;;;2.60;;
59512;SDS011;45330;51.634;5.562;2022-10-24T02:00:57;11.43;;;2.53;;
59512;SDS011;45330;51.634;5.562;2022-10-24T02:03:45;10.45;;;2.78;;
59512;SDS011;45330;51.634;5.562;2022-10-24T02:06:16;11.02;;;2.70;;
59512;SDS011;45330;51.634;5.562;2022-10-24T02:08:46;10.60;;;3.03;;
59512;SDS011;45330;51.634;5.562;2022-10-24T02:11:15;11.07;;;3.03;;
59512;SDS011;45330;51.634;5.562;2022-10-24T02:13:42;11.95;;;2.70;;
59512;SDS011;45330;51.634;5.562;2022-10-24T02:16:15;9.00;;;2.65;;
59512;SDS011;45330;51.634;5.562;2022-10-24T02:18:42;9.93;;;2.60;;
59512;SDS011;45330;51.634;5.562;2022-10-24T02:24:14;14.27;;;2.83;;
59512;SDS011;45330;51.634;5.562;2022-10-24T02:26:55;8.55;;;2.60;;
59512;SDS011;45330;51.634;5.562;2022-10-24T02:29:30;11.98;;;2.65;;
59512;SDS011;45330;51.634;5.562;2022-10-24T02:32:00;7.82;;;2.28;;
59512;SDS011;45330;51.634;5.562;2022-10-24T02:34:30;12.45;;;2.60;;
59512;SDS011;45330;51.634;5.562;2022-10-24T02:36:58;12.52;;;2.95;;
59512;SDS011;45330;51.634;5.562;2022-10-24T02:39:24;12.82;;;2.55;;
59512;SDS011;45330;51.634;5.562;2022-10-24T02:41:52;12.13;;;2.60;;
59512;SDS011;45330;51.634;5.562;2022-10-24T02:44:20;9.90;;;2.40;;
59512;SDS011;45330;51.634;5.562;2022-10-24T02:46:48;10.82;;;2.40;;
59512;SDS011;45330;51.634;5.562;2022-10-24T02:49:16;10.32;;;2.50;;
59512;SDS011;45330;51.634;5.562;2022-10-24T02:51:42;9.98;;;2.60;;
59512;SDS011;45330;51.634;5.562;2022-10-24T02:54:09;11.63;;;2.63;;
59512;SDS011;45330;51.634;5.562;2022-10-24T02:56:36;11.30;;;2.22;;
59512;SDS011;45330;51.634;5.562;2022-10-24T02:59:05;8.98;;;2.45;;
59512;SDS011;45330;51.634;5.562;2022-10-24T03:01:30;8.60;;;2.30;;
59512;SDS011;45330;51.634;5.562;2022-10-24T03:03:55;11.93;;;2.63;;
59512;SDS011;45330;51.634;5.562;2022-10-24T03:06:21;12.10;;;2.63;;
59512;SDS011;45330;51.634;5.562;2022-10-24T03:08:46;7.60;;;2.20;;
59512;SDS011;45330;51.634;5.562;2022-10-24T03:11:12;10.35;;;2.50;;
59512;SDS011;45330;51.634;5.562;2022-10-24T03:13:37;8.23;;;2.45;;
59512;SDS011;45330;51.634;5.562;2022-10-24T03:16:03;9.25;;;2.38;;
59512;SDS011;45330;51.634;5.562;2022-10-24T03:18:28;11.90;;;2.53;;
59512;SDS011;45330;51.634;5.562;2022-10-24T03:20:54;10.60;;;2.20;;
59512;SDS011;45330;51.634;5.562;2022-10-24T03:23:19;11.40;;;2.63;;
59512;SDS011;45330;51.634;5.562;2022-10-24T03:25:46;8.95;;;2.30;;
59512;SDS011;45330;51.634;5.562;2022-10-24T03:28:11;7.68;;;2.28;;
59512;SDS011;45330;51.634;5.562;2022-10-24T03:30:36;9.35;;;2.28;;
59512;SDS011;45330;51.634;5.562;2022-10-24T03:33:02;7.65;;;2.20;;
59512;SDS011;45330;51.634;5.562;2022-10-24T03:35:27;10.15;;;2.63;;
59512;SDS011;45330;51.634;5.562;2022-10-24T03:37:53;5.38;;;2.00;;
59512;SDS011;45330;51.634;5.562;2022-10-24T03:40:18;15.02;;;2.85;;
59512;SDS011;45330;51.634;5.562;2022-10-24T03:42:43;9.02;;;2.38;;
59512;SDS011;45330;51.634;5.562;2022-10-24T03:45:09;6.88;;;2.20;;
59512;SDS011;45330;51.634;5.562;2022-10-24T03:47:34;10.68;;;2.47;;
59512;SDS011;45330;51.634;5.562;2022-10-24T03:50:00;9.02;;;2.15;;
59512;SDS011;45330;51.634;5.562;2022-10-24T03:52:26;10.40;;;2.50;;
59512;SDS011;45330;51.634;5.562;2022-10-24T03:54:51;8.68;;;2.17;;
59512;SDS011;45330;51.634;5.562;2022-10-24T03:57:16;10.93;;;2.40;;
59512;SDS011;45330;51.634;5.562;2022-10-24T03:59:42;12.57;;;2.50;;
59512;SDS011;45330;51.634;5.562;2022-10-24T04:02:07;10.68;;;2.30;;
59512;SDS011;45330;51.634;5.562;2022-10-24T04:04:32;9.85;;;2.97;;
59512;SDS011;45330;51.634;5.562;2022-10-24T04:06:58;11.13;;;2.50;;
59512;SDS011;45330;51.634;5.562;2022-10-24T04:09:24;12.82;;;2.47;;
59512;SDS011;45330;51.634;5.562;2022-10-24T04:11:50;10.35;;;2.35;;
59512;SDS011;45330;51.634;5.562;2022-10-24T04:14:17;11.20;;;2.40;;
59512;SDS011;45330;51.634;5.562;2022-10-24T04:16:43;9.52;;;2.33;;
59512;SDS011;45330;51.634;5.562;2022-10-24T04:19:08;10.63;;;2.42;;
59512;SDS011;45330;51.634;5.562;2022-10-24T04:21:34;11.82;;;2.42;;
59512;SDS011;45330;51.634;5.562;2022-10-24T04:24:00;8.88;;;2.00;;
59512;SDS011;45330;51.634;5.562;2022-10-24T04:26:25;6.95;;;2.30;;
59512;SDS011;45330;51.634;5.562;2022-10-24T04:28:51;10.80;;;2.42;;
59512;SDS011;45330;51.634;5.562;2022-10-24T04:31:16;14.40;;;2.67;;
59512;SDS011;45330;51.634;5.562;2022-10-24T04:33:42;12.77;;;2.20;;
59512;SDS011;45330;51.634;5.562;2022-10-24T04:36:07;9.30;;;2.08;;
59512;SDS011;45330;51.634;5.562;2022-10-24T04:38:33;11.73;;;2.30;;
59512;SDS011;45330;51.634;5.562;2022-10-24T04:40:58;11.05;;;2.38;;
59512;SDS011;45330;51.634;5.562;2022-10-24T04:43:24;9.75;;;2.50;;
59512;SDS011;45330;51.634;5.562;2022-10-24T04:45:50;9.25;;;2.40;;
59512;SDS011;45330;51.634;5.562;2022-10-24T04:48:15;10.07;;;2.10;;
59512;SDS011;45330;51.634;5.562;2022-10-24T04:50:41;13.43;;;2.15;;
59512;SDS011;45330;51.634;5.562;2022-10-24T04:53:08;8.40;;;2.10;;
59512;SDS011;45330;51.634;5.562;2022-10-24T04:55:34;8.07;;;2.33;;
59512;SDS011;45330;51.634;5.562;2022-10-24T04:58:00;8.77;;;2.20;;
59512;SDS011;45330;51.634;5.562;2022-10-24T05:00:26;9.73;;;2.15;;
59512;SDS011;45330;51.634;5.562;2022-10-24T05:02:51;12.32;;;2.60;;
59512;SDS011;45330;51.634;5.562;2022-10-24T05:05:16;10.13;;;2.30;;
59512;SDS011;45330;51.634;5.562;2022-10-24T05:07:42;9.77;;;2.30;;
59512;SDS011;45330;51.634;5.562;2022-10-24T05:10:08;11.15;;;2.20;;
59512;SDS011;45330;51.634;5.562;2022-10-24T05:12:34;11.55;;;2.28;;
59512;SDS011;45330;51.634;5.562;2022-10-24T05:15:00;11.80;;;2.50;;
59512;SDS011;45330;51.634;5.562;2022-10-24T05:17:26;16.83;;;3.17;;
59512;SDS011;45330;51.634;5.562;2022-10-24T05:19:51;13.85;;;2.38;;
59512;SDS011;45330;51.634;5.562;2022-10-24T05:22:17;15.38;;;2.22;;
59512;SDS011;45330;51.634;5.562;2022-10-24T05:24:42;11.50;;;2.25;;
59512;SDS011;45330;51.634;5.562;2022-10-24T05:27:07;12.00;;;2.30;;
59512;SDS011;45330;51.634;5.562;2022-10-24T05:29:33;8.10;;;2.03;;
59512;SDS011;45330;51.634;5.562;2022-10-24T05:31:58;11.77;;;2.17;;
59512;SDS011;45330;51.634;5.562;2022-10-24T05:34:24;15.73;;;2.90;;
59512;SDS011;45330;51.634;5.562;2022-10-24T05:36:50;11.98;;;2.22;;
59512;SDS011;45330;51.634;5.562;2022-10-24T05:39:16;11.20;;;3.30;;
59512;SDS011;45330;51.634;5.562;2022-10-24T05:41:41;11.30;;;2.13;;
59512;SDS011;45330;51.634;5.562;2022-10-24T05:44:06;13.25;;;2.42;;
59512;SDS011;45330;51.634;5.562;2022-10-24T05:46:33;11.93;;;2.33;;
59512;SDS011;45330;51.634;5.562;2022-10-24T05:48:58;13.80;;;2.90;;
59512;SDS011;45330;51.634;5.562;2022-10-24T05:51:23;11.95;;;2.30;;
59512;SDS011;45330;51.634;5.562;2022-10-24T05:53:49;12.48;;;2.45;;
59512;SDS011;45330;51.634;5.562;2022-10-24T05:56:14;11.85;;;2.33;;
59512;SDS011;45330;51.634;5.562;2022-10-24T05:58:39;11.15;;;2.42;;
59512;SDS011;45330;51.634;5.562;2022-10-24T06:01:05;14.88;;;2.67;;
59512;SDS011;45330;51.634;5.562;2022-10-24T06:03:30;8.82;;;2.33;;
59512;SDS011;45330;51.634;5.562;2022-10-24T06:05:56;14.77;;;2.42;;
59512;SDS011;45330;51.634;5.562;2022-10-24T06:08:21;11.13;;;2.22;;
59512;SDS011;45330;51.634;5.562;2022-10-24T06:10:49;10.20;;;2.85;;
59512;SDS011;45330;51.634;5.562;2022-10-24T06:13:15;12.52;;;2.72;;
59512;SDS011;45330;51.634;5.562;2022-10-24T06:15:41;13.63;;;2.13;;
59512;SDS011;45330;51.634;5.562;2022-10-24T06:18:08;16.20;;;2.50;;
59512;SDS011;45330;51.634;5.562;2022-10-24T06:20:33;15.38;;;2.55;;
59512;SDS011;45330;51.634;5.562;2022-10-24T06:22:58;13.02;;;2.35;;
59512;SDS011;45330;51.634;5.562;2022-10-24T06:25:24;13.45;;;2.05;;
59512;SDS011;45330;51.634;5.562;2022-10-24T06:27:49;16.23;;;2.50;;
59512;SDS011;45330;51.634;5.562;2022-10-24T06:30:15;13.48;;;2.40;;
59512;SDS011;45330;51.634;5.562;2022-10-24T06:32:40;11.93;;;2.20;;
59512;SDS011;45330;51.634;5.562;2022-10-24T06:35:06;14.52;;;2.58;;
59512;SDS011;45330;51.634;5.562;2022-10-24T06:37:31;15.27;;;2.58;;
59512;SDS011;45330;51.634;5.562;2022-10-24T06:39:57;12.55;;;2.33;;
59512;SDS011;45330;51.634;5.562;2022-10-24T06:42:23;16.33;;;2.78;;
59512;SDS011;45330;51.634;5.562;2022-10-24T06:44:49;19.10;;;2.67;;
59512;SDS011;45330;51.634;5.562;2022-10-24T06:47:15;16.45;;;2.60;;
59512;SDS011;45330;51.634;5.562;2022-10-24T06:49:41;18.27;;;2.83;;
59512;SDS011;45330;51.634;5.562;2022-10-24T06:52:06;12.05;;;2.50;;
59512;SDS011;45330;51.634;5.562;2022-10-24T06:54:32;14.70;;;2.90;;
59512;SDS011;45330;51.634;5.562;2022-10-24T06:56:59;16.02;;;2.53;;
59512;SDS011;45330;51.634;5.562;2022-10-24T06:59:25;15.20;;;2.53;;
59512;SDS011;45330;51.634;5.562;2022-10-24T07:01:51;12.07;;;2.40;;
59512;SDS011;45330;51.634;5.562;2022-10-24T07:04:16;16.35;;;2.60;;
59512;SDS011;45330;51.634;5.562;2022-10-24T07:06:42;13.98;;;2.65;;
59512;SDS011;45330;51.634;5.562;2022-10-24T07:09:09;12.32;;;2.40;;
59512;SDS011;45330;51.634;5.562;2022-10-24T07:11:36;10.55;;;2.45;;
59512;SDS011;45330;51.634;5.562;2022-10-24T07:14:01;17.52;;;2.97;;
59512;SDS011;45330;51.634;5.562;2022-10-24T07:16:27;10.05;;;2.42;;
59512;SDS011;45330;51.634;5.562;2022-10-24T07:18:53;15.23;;;2.70;;
59512;SDS011;45330;51.634;5.562;2022-10-24T07:21:20;18.15;;;2.85;;
59512;SDS011;45330;51.634;5.562;2022-10-24T07:23:49;13.18;;;2.30;;
59512;SDS011;45330;51.634;5.562;2022-10-24T07:26:15;13.95;;;2.20;;
59512;SDS011;45330;51.634;5.562;2022-10-24T07:28:41;13.13;;;2.30;;
59512;SDS011;45330;51.634;5.562;2022-10-24T07:31:10;16.02;;;2.80;;
59512;SDS011;45330;51.634;5.562;2022-10-24T07:33:39;15.80;;;2.53;;
59512;SDS011;45330;51.634;5.562;2022-10-24T07:36:05;15.68;;;3.05;;
59512;SDS011;45330;51.634;5.562;2022-10-24T07:38:31;11.93;;;2.60;;
59512;SDS011;45330;51.634;5.562;2022-10-24T07:40:56;11.40;;;2.50;;
59512;SDS011;45330;51.634;5.562;2022-10-24T07:43:22;11.88;;;2.47;;
59512;SDS011;45330;51.634;5.562;2022-10-24T07:45:48;16.25;;;2.75;;
59512;SDS011;45330;51.634;5.562;2022-10-24T07:48:14;18.42;;;2.92;;
59512;SDS011;45330;51.634;5.562;2022-10-24T07:50:43;14.48;;;2.38;;
59512;SDS011;45330;51.634;5.562;2022-10-24T07:53:10;16.17;;;2.65;;
59512;SDS011;45330;51.634;5.562;2022-10-24T07:55:40;16.63;;;2.70;;
59512;SDS011;45330;51.634;5.562;2022-10-24T07:58:07;14.33;;;2.57;;
59512;SDS011;45330;51.634;5.562;2022-10-24T08:00:32;11.13;;;2.30;;
59512;SDS011;45330;51.634;5.562;2022-10-24T08:02:58;13.60;;;2.58;;
59512;SDS011;45330;51.634;5.562;2022-10-24T08:05:23;14.63;;;3.03;;
59512;SDS011;45330;51.634;5.562;2022-10-24T08:07:49;14.25;;;2.72;;
59512;SDS011;45330;51.634;5.562;2022-10-24T08:10:15;12.10;;;2.25;;
59512;SDS011;45330;51.634;5.562;2022-10-24T08:12:41;12.45;;;2.28;;
59512;SDS011;45330;51.634;5.562;2022-10-24T08:15:06;14.18;;;2.55;;
59512;SDS011;45330;51.634;5.562;2022-10-24T08:17:32;13.25;;;2.60;;
59512;SDS011;45330;51.634;5.562;2022-10-24T08:19:58;16.58;;;2.85;;
59512;SDS011;45330;51.634;5.562;2022-10-24T08:22:23;17.55;;;2.50;;
59512;SDS011;45330;51.634;5.562;2022-10-24T08:24:49;12.80;;;2.33;;
59512;SDS011;45330;51.634;5.562;2022-10-24T08:27:14;15.30;;;2.50;;
59512;SDS011;45330;51.634;5.562;2022-10-24T08:29:39;14.50;;;2.30;;
59512;SDS011;45330;51.634;5.562;2022-10-24T08:32:05;14.73;;;2.67;;
59512;SDS011;45330;51.634;5.562;2022-10-24T08:34:31;12.88;;;2.13;;
59512;SDS011;45330;51.634;5.562;2022-10-24T08:36:57;15.80;;;2.40;;
59512;SDS011;45330;51.634;5.562;2022-10-24T08:39:22;11.68;;;2.08;;
59512;SDS011;45330;51.634;5.562;2022-10-24T08:41:52;12.82;;;2.17;;
59512;SDS011;45330;51.634;5.562;2022-10-24T08:44:28;15.52;;;3.00;;
59512;SDS011;45330;51.634;5.562;2022-10-24T08:50:04;13.73;;;2.45;;
59512;SDS011;45330;51.634;5.562;2022-10-24T08:54:59;18.35;;;2.55;;
59512;SDS011;45330;51.634;5.562;2022-10-24T08:57:31;11.18;;;1.88;;
59512;SDS011;45330;51.634;5.562;2022-10-24T08:59:59;13.00;;;2.40;;
59512;SDS011;45330;51.634;5.562;2022-10-24T09:02:30;14.23;;;2.20;;
59512;SDS011;45330;51.634;5.562;2022-10-24T09:05:16;12.07;;;2.10;;
59512;SDS011;45330;51.634;5.562;2022-10-24T09:07:46;11.13;;;2.10;;
59512;SDS011;45330;51.634;5.562;2022-10-24T09:10:19;13.73;;;2.55;;
59512;SDS011;45330;51.634;5.562;2022-10-24T09:12:50;12.05;;;1.90;;
59512;SDS011;45330;51.634;5.562;2022-10-24T09:15:19;9.68;;;1.80;;
59512;SDS011;45330;51.634;5.562;2022-10-24T09:17:50;15.45;;;2.10;;
59512;SDS011;45330;51.634;5.562;2022-10-24T09:22:49;12.30;;;2.03;;
59512;SDS011;45330;51.634;5.562;2022-10-24T09:25:20;9.93;;;2.13;;
59512;SDS011;45330;51.634;5.562;2022-10-24T09:27:48;12.30;;;2.33;;
59512;SDS011;45330;51.634;5.562;2022-10-24T09:30:16;10.55;;;2.42;;
59512;SDS011;45330;51.634;5.562;2022-10-24T09:32:43;11.35;;;2.08;;
59512;SDS011;45330;51.634;5.562;2022-10-24T09:35:17;15.10;;;2.53;;
59512;SDS011;45330;51.634;5.562;2022-10-24T09:37:45;12.40;;;2.33;;
59512;SDS011;45330;51.634;5.562;2022-10-24T09:42:57;9.57;;;2.08;;
59512;SDS011;45330;51.634;5.562;2022-10-24T09:47:58;14.60;;;2.13;;
59512;SDS011;45330;51.634;5.562;2022-10-24T09:50:26;17.80;;;3.40;;
59512;SDS011;45330;51.634;5.562;2022-10-24T09:52:52;15.30;;;2.80;;
59512;SDS011;45330;51.634;5.562;2022-10-24T09:55:22;12.23;;;2.00;;
59512;SDS011;45330;51.634;5.562;2022-10-24T09:57:52;13.45;;;2.40;;
59512;SDS011;45330;51.634;5.562;2022-10-24T10:00:28;10.95;;;2.13;;
59512;SDS011;45330;51.634;5.562;2022-10-24T10:05:24;11.88;;;1.85;;
59512;SDS011;45330;51.634;5.562;2022-10-24T10:07:49;12.63;;;2.10;;
59512;SDS011;45330;51.634;5.562;2022-10-24T10:13:02;10.32;;;2.10;;
59512;SDS011;45330;51.634;5.562;2022-10-24T10:15:45;13.73;;;2.63;;
59512;SDS011;45330;51.634;5.562;2022-10-24T10:18:26;13.35;;;2.63;;
59512;SDS011;45330;51.634;5.562;2022-10-24T10:21:03;14.75;;;2.80;;
59512;SDS011;45330;51.634;5.562;2022-10-24T10:23:35;14.77;;;2.50;;
59512;SDS011;45330;51.634;5.562;2022-10-24T10:26:11;13.73;;;2.55;;
59512;SDS011;45330;51.634;5.562;2022-10-24T10:28:49;12.57;;;2.67;;
59512;SDS011;45330;51.634;5.562;2022-10-24T10:31:43;17.35;;;2.97;;
59512;SDS011;45330;51.634;5.562;2022-10-24T10:39:23;16.55;;;3.13;;
59512;SDS011;45330;51.634;5.562;2022-10-24T10:42:06;14.73;;;2.90;;
59512;SDS011;45330;51.634;5.562;2022-10-24T10:47:32;13.85;;;2.63;;
59512;SDS011;45330;51.634;5.562;2022-10-24T10:52:44;14.77;;;2.95;;
59512;SDS011;45330;51.634;5.562;2022-10-24T11:00:25;14.40;;;2.33;;
59512;SDS011;45330;51.634;5.562;2022-10-24T11:08:40;8.93;;;2.20;;
59512;SDS011;45330;51.634;5.562;2022-10-24T11:11:16;10.60;;;2.13;;
59512;SDS011;45330;51.634;5.562;2022-10-24T11:18:54;11.60;;;2.40;;
59512;SDS011;45330;51.634;5.562;2022-10-24T11:21:25;12.52;;;2.40;;
59512;SDS011;45330;51.634;5.562;2022-10-24T11:23:59;13.52;;;2.40;;
59512;SDS011;45330;51.634;5.562;2022-10-24T11:31:58;13.67;;;2.30;;
59512;SDS011;45330;51.634;5.562;2022-10-24T11:34:31;13.63;;;2.70;;
59512;SDS011;45330;51.634;5.562;2022-10-24T11:42:06;14.48;;;2.60;;
59512;SDS011;45330;51.634;5.562;2022-10-24T11:50:26;11.27;;;2.30;;
59512;SDS011;45330;51.634;5.562;2022-10-24T11:55:52;10.88;;;2.33;;
59512;SDS011;45330;51.634;5.562;2022-10-24T11:58:46;13.63;;;2.40;;
59512;SDS011;45330;51.634;5.562;2022-10-24T12:01:32;15.40;;;2.83;;
59512;SDS011;45330;51.634;5.562;2022-10-24T12:19:01;13.10;;;2.65;;
59512;SDS011;45330;51.634;5.562;2022-10-24T12:21:40;13.27;;;2.80;;
59512;SDS011;45330;51.634;5.562;2022-10-24T12:24:20;10.18;;;2.20;;
59512;SDS011;45330;51.634;5.562;2022-10-24T12:26:55;17.05;;;2.63;;
59512;SDS011;45330;51.634;5.562;2022-10-24T12:29:24;11.90;;;2.67;;
59512;SDS011;45330;51.634;5.562;2022-10-24T12:31:51;14.20;;;2.55;;
59512;SDS011;45330;51.634;5.562;2022-10-24T12:39:33;10.20;;;2.25;;
59512;SDS011;45330;51.634;5.562;2022-10-24T12:42:02;16.60;;;2.63;;
59512;SDS011;45330;51.634;5.562;2022-10-24T12:46:53;12.43;;;2.40;;
59512;SDS011;45330;51.634;5.562;2022-10-24T12:49:26;17.50;;;3.13;;
59512;SDS011;45330;51.634;5.562;2022-10-24T12:51:53;10.10;;;2.20;;
59512;SDS011;45330;51.634;5.562;2022-10-24T13:07:27;9.48;;;2.30;;
59512;SDS011;45330;51.634;5.562;2022-10-24T13:10:21;11.48;;;2.60;;
59512;SDS011;45330;51.634;5.562;2022-10-24T13:21:21;14.40;;;2.33;;
59512;SDS011;45330;51.634;5.562;2022-10-24T13:23:51;12.77;;;2.20;;
59512;SDS011;45330;51.634;5.562;2022-10-24T13:26:27;13.23;;;2.42;;
59512;SDS011;45330;51.634;5.562;2022-10-24T13:29:00;14.32;;;2.72;;
59512;SDS011;45330;51.634;5.562;2022-10-24T13:33:51;11.45;;;2.17;;
59512;SDS011;45330;51.634;5.562;2022-10-24T13:36:30;11.57;;;2.33;;
59512;SDS011;45330;51.634;5.562;2022-10-24T13:38:57;13.10;;;2.38;;
59512;SDS011;45330;51.634;5.562;2022-10-24T13:44:22;11.35;;;2.25;;
59512;SDS011;45330;51.634;5.562;2022-10-24T13:46:58;15.18;;;2.70;;
59512;SDS011;45330;51.634;5.562;2022-10-24T13:49:32;13.00;;;2.08;;
59512;SDS011;45330;51.634;5.562;2022-10-24T13:52:06;9.52;;;2.47;;
59512;SDS011;45330;51.634;5.562;2022-10-24T13:54:39;13.90;;;2.55;;
59512;SDS011;45330;51.634;5.562;2022-10-24T13:59:53;9.30;;;2.13;;
59512;SDS011;45330;51.634;5.562;2022-10-24T14:02:24;14.30;;;2.10;;
59512;SDS011;45330;51.634;5.562;2022-10-24T14:04:53;9.90;;;2.15;;
59512;SDS011;45330;51.634;5.562;2022-10-24T14:07:23;7.40;;;2.00;;
59512;SDS011;45330;51.634;5.562;2022-10-24T14:10:14;12.32;;;2.25;;
59512;SDS011;45330;51.634;5.562;2022-10-24T14:12:41;14.13;;;2.45;;
59512;SDS011;45330;51.634;5.562;2022-10-24T14:15:16;10.55;;;2.00;;
59512;SDS011;45330;51.634;5.562;2022-10-24T14:17:57;15.23;;;2.65;;
59512;SDS011;45330;51.634;5.562;2022-10-24T14:22:58;13.73;;;2.00;;
59512;SDS011;45330;51.634;5.562;2022-10-24T14:27:50;10.57;;;2.08;;
59512;SDS011;45330;51.634;5.562;2022-10-24T14:30:19;12.63;;;2.35;;
59512;SDS011;45330;51.634;5.562;2022-10-24T14:32:46;8.82;;;2.10;;
59512;SDS011;45330;51.634;5.562;2022-10-24T14:35:13;10.00;;;2.10;;
59512;SDS011;45330;51.634;5.562;2022-10-24T14:37:40;12.40;;;2.20;;
59512;SDS011;45330;51.634;5.562;2022-10-24T14:40:25;8.95;;;2.00;;
59512;SDS011;45330;51.634;5.562;2022-10-24T14:42:51;14.52;;;2.30;;
59512;SDS011;45330;51.634;5.562;2022-10-24T14:45:35;8.95;;;2.13;;
59512;SDS011;45330;51.634;5.562;2022-10-24T14:48:00;12.13;;;2.53;;
59512;SDS011;45330;51.634;5.562;2022-10-24T14:50:37;14.95;;;2.40;;
59512;SDS011;45330;51.634;5.562;2022-10-24T14:53:05;10.30;;;2.00;;
59512;SDS011;45330;51.634;5.562;2022-10-24T14:55:51;12.10;;;1.95;;
59512;SDS011;45330;51.634;5.562;2022-10-24T14:58:20;7.63;;;1.90;;
59512;SDS011;45330;51.634;5.562;2022-10-24T15:00:48;14.32;;;2.22;;
59512;SDS011;45330;51.634;5.562;2022-10-24T15:03:14;16.15;;;2.65;;
59512;SDS011;45330;51.634;5.562;2022-10-24T15:05:41;14.27;;;2.15;;
59512;SDS011;45330;51.634;5.562;2022-10-24T15:10:42;11.35;;;2.17;;
59512;SDS011;45330;51.634;5.562;2022-10-24T15:13:15;7.55;;;1.90;;
59512;SDS011;45330;51.634;5.562;2022-10-24T15:15:54;11.45;;;2.30;;
59512;SDS011;45330;51.634;5.562;2022-10-24T15:18:32;12.15;;;2.20;;
59512;SDS011;45330;51.634;5.562;2022-10-24T15:21:16;11.63;;;2.45;;
59512;SDS011;45330;51.634;5.562;2022-10-24T15:23:55;10.38;;;2.22;;
59512;SDS011;45330;51.634;5.562;2022-10-24T15:31:25;10.90;;;2.28;;
59512;SDS011;45330;51.634;5.562;2022-10-24T15:33:51;8.93;;;2.08;;
59512;SDS011;45330;51.634;5.562;2022-10-24T15:36:21;10.52;;;2.00;;
59512;SDS011;45330;51.634;5.562;2022-10-24T15:38:52;11.07;;;2.08;;
59512;SDS011;45330;51.634;5.562;2022-10-24T15:41:19;8.43;;;1.92;;
59512;SDS011;45330;51.634;5.562;2022-10-24T15:43:45;6.78;;;1.67;;
59512;SDS011;45330;51.634;5.562;2022-10-24T15:46:10;8.77;;;1.95;;
59512;SDS011;45330;51.634;5.562;2022-10-24T15:48:36;8.23;;;1.92;;
59512;SDS011;45330;51.634;5.562;2022-10-24T15:51:03;8.68;;;1.92;;
59512;SDS011;45330;51.634;5.562;2022-10-24T15:53:28;9.73;;;1.83;;
59512;SDS011;45330;51.634;5.562;2022-10-24T15:55:54;9.85;;;2.40;;
59512;SDS011;45330;51.634;5.562;2022-10-24T15:58:19;8.30;;;2.10;;
59512;SDS011;45330;51.634;5.562;2022-10-24T16:00:45;8.73;;;2.00;;
59512;SDS011;45330;51.634;5.562;2022-10-24T16:03:12;9.55;;;2.13;;
59512;SDS011;45330;51.634;5.562;2022-10-24T16:05:42;12.45;;;2.15;;
59512;SDS011;45330;51.634;5.562;2022-10-24T16:08:12;11.02;;;1.85;;
59512;SDS011;45330;51.634;5.562;2022-10-24T16:10:40;6.72;;;1.90;;
59512;SDS011;45330;51.634;5.562;2022-10-24T16:13:06;10.30;;;2.15;;
59512;SDS011;45330;51.634;5.562;2022-10-24T16:15:33;7.50;;;1.70;;
59512;SDS011;45330;51.634;5.562;2022-10-24T16:18:00;12.05;;;2.13;;
59512;SDS011;45330;51.634;5.562;2022-10-24T16:20:25;10.45;;;2.17;;
59512;SDS011;45330;51.634;5.562;2022-10-24T16:22:51;11.88;;;2.45;;
59512;SDS011;45330;51.634;5.562;2022-10-24T16:25:18;9.25;;;2.05;;
59512;SDS011;45330;51.634;5.562;2022-10-24T16:27:48;10.15;;;2.20;;
59512;SDS011;45330;51.634;5.562;2022-10-24T16:30:15;12.60;;;2.10;;
59512;SDS011;45330;51.634;5.562;2022-10-24T16:32:43;10.60;;;2.35;;
59512;SDS011;45330;51.634;5.562;2022-10-24T16:35:10;9.15;;;2.47;;
59512;SDS011;45330;51.634;5.562;2022-10-24T16:37:40;9.57;;;2.00;;
59512;SDS011;45330;51.634;5.562;2022-10-24T16:40:06;8.98;;;2.03;;
59512;SDS011;45330;51.634;5.562;2022-10-24T16:42:31;14.43;;;2.47;;
59512;SDS011;45330;51.634;5.562;2022-10-24T16:44:57;11.50;;;2.10;;
59512;SDS011;45330;51.634;5.562;2022-10-24T16:47:22;11.75;;;2.30;;
59512;SDS011;45330;51.634;5.562;2022-10-24T16:49:49;9.02;;;2.10;;
59512;SDS011;45330;51.634;5.562;2022-10-24T16:52:18;6.65;;;1.88;;
59512;SDS011;45330;51.634;5.562;2022-10-24T16:54:44;11.82;;;2.05;;
59512;SDS011;45330;51.634;5.562;2022-10-24T16:57:10;7.70;;;2.10;;
59512;SDS011;45330;51.634;5.562;2022-10-24T16:59:35;12.75;;;2.50;;
59512;SDS011;45330;51.634;5.562;2022-10-24T17:02:00;9.48;;;2.30;;
59512;SDS011;45330;51.634;5.562;2022-10-24T17:04:27;10.00;;;2.28;;
59512;SDS011;45330;51.634;5.562;2022-10-24T17:06:53;6.95;;;2.30;;
59512;SDS011;45330;51.634;5.562;2022-10-24T17:09:18;7.53;;;2.20;;
59512;SDS011;45330;51.634;5.562;2022-10-24T17:11:43;8.13;;;2.10;;
59512;SDS011;45330;51.634;5.562;2022-10-24T17:14:09;7.63;;;2.17;;
59512;SDS011;45330;51.634;5.562;2022-10-24T17:16:37;5.78;;;2.28;;
59512;SDS011;45330;51.634;5.562;2022-10-24T17:19:03;8.68;;;2.00;;
59512;SDS011;45330;51.634;5.562;2022-10-24T17:21:29;6.80;;;1.80;;
59512;SDS011;45330;51.634;5.562;2022-10-24T17:23:54;12.70;;;2.58;;
59512;SDS011;45330;51.634;5.562;2022-10-24T17:26:20;6.82;;;1.85;;
59512;SDS011;45330;51.634;5.562;2022-10-24T17:28:46;4.50;;;2.00;;